createdAt,value
2018-10-12T00:00:46.419Z,0.00
2018-10-12T00:01:46.388Z,0.00
2018-10-12T00:02:46.403Z,0.00
2018-10-12T00:03:46.394Z,0.00
2018-10-12T00:04:46.401Z,0.00
2018-10-12T00:05:46.445Z,0.00
2018-10-12T00:06:46.404Z,0.00
2018-10-12T00:07:46.406Z,0.00
2018-10-12T00:08:46.410Z,0.00
2018-10-12T00:09:46.417Z,0.00
2018-10-12T00:10:46.413Z,0.00
2018-10-12T00:11:46.418Z,0.00
2018-10-12T00:12:46.425Z,0.00
2018-10-12T00:13:46.426Z,0.00
2018-10-12T00:14:46.427Z,0.00
2018-10-12T00:15:46.432Z,0.00
2018-10-12T00:16:46.433Z,0.00
2018-10-12T00:17:46.437Z,0.00
2018-10-12T00:18:46.441Z,0.00
2018-10-12T00:19:46.441Z,0.00
2018-10-12T00:20:46.453Z,0.00
2018-10-12T00:21:46.449Z,0.00
2018-10-12T00:22:46.453Z,0.00
2018-10-12T00:23:46.458Z,0.00
2018-10-12T00:24:46.458Z,0.00
2018-10-12T00:25:46.460Z,0.00
2018-10-12T00:26:46.484Z,0.00
2018-10-12T00:27:46.467Z,0.00
2018-10-12T00:28:46.467Z,0.00
2018-10-12T00:29:46.471Z,0.00
2018-10-12T00:30:46.474Z,0.00
2018-10-12T00:31:46.479Z,0.00
2018-10-12T00:32:46.482Z,0.00
2018-10-12T00:33:46.484Z,0.00
2018-10-12T00:34:46.487Z,0.00
2018-10-12T00:35:46.489Z,0.00
2018-10-12T00:36:46.490Z,0.00
2018-10-12T00:37:46.495Z,0.00
2018-10-12T00:38:46.498Z,0.00
2018-10-12T00:39:46.502Z,0.00
2018-10-12T00:40:46.504Z,0.00
2018-10-12T00:41:46.508Z,0.00
2018-10-12T00:42:46.508Z,0.00
2018-10-12T00:43:46.515Z,0.00
2018-10-12T00:44:46.531Z,0.00
2018-10-12T00:45:46.518Z,0.00
2018-10-12T00:46:46.523Z,0.00
2018-10-12T00:47:46.550Z,0.00
2018-10-12T00:48:46.531Z,0.00
2018-10-12T00:49:46.553Z,0.00
2018-10-12T00:50:46.533Z,0.00
2018-10-12T00:51:46.539Z,0.00
2018-10-12T00:52:46.540Z,0.00
2018-10-12T00:53:46.548Z,0.00
2018-10-12T00:54:46.549Z,0.00
2018-10-12T00:55:46.548Z,0.00
2018-10-12T00:56:46.552Z,0.00
2018-10-12T00:57:46.555Z,0.00
2018-10-12T00:58:46.558Z,0.00
2018-10-12T00:59:46.560Z,0.00
2018-10-12T01:00:46.564Z,0.00
2018-10-12T01:01:46.566Z,0.00
2018-10-12T01:02:46.568Z,0.00
2018-10-12T01:03:46.582Z,0.00
2018-10-12T01:04:46.577Z,0.00
2018-10-12T01:05:46.578Z,0.00
2018-10-12T01:06:46.696Z,0.00
2018-10-12T01:07:46.588Z,0.00
2018-10-12T01:08:46.592Z,0.00
2018-10-12T01:09:46.593Z,0.00
2018-10-12T01:10:46.593Z,0.00
2018-10-12T01:11:46.603Z,0.00
2018-10-12T01:12:46.611Z,0.00
2018-10-12T01:13:46.604Z,0.00
2018-10-12T01:14:46.607Z,0.00
2018-10-12T01:15:46.608Z,0.00
2018-10-12T01:16:46.613Z,0.00
2018-10-12T01:17:46.614Z,0.00
2018-10-12T01:18:46.615Z,0.00
2018-10-12T01:19:46.620Z,0.00
2018-10-12T01:20:46.621Z,0.00
2018-10-12T01:21:46.624Z,0.00
2018-10-12T01:22:46.659Z,0.00
2018-10-12T01:23:46.631Z,0.00
2018-10-12T01:24:46.635Z,0.00
2018-10-12T01:25:46.639Z,0.00
2018-10-12T01:26:46.640Z,0.00
2018-10-12T01:27:46.663Z,0.00
2018-10-12T01:28:46.652Z,0.00
2018-10-12T01:29:46.648Z,0.00
2018-10-12T01:30:46.651Z,0.00
2018-10-12T01:31:46.659Z,0.00
2018-10-12T01:32:46.653Z,0.00
2018-10-12T01:33:46.658Z,0.00
2018-10-12T01:34:46.664Z,0.00
2018-10-12T01:35:46.666Z,0.00
2018-10-12T01:36:46.669Z,0.00
2018-10-12T01:37:46.673Z,0.00
2018-10-12T01:38:46.678Z,0.00
2018-10-12T01:39:46.693Z,0.00
2018-10-12T01:40:46.679Z,0.00
2018-10-12T01:41:46.685Z,0.00
2018-10-12T01:42:46.689Z,0.00
2018-10-12T01:43:46.691Z,0.00
2018-10-12T01:44:46.694Z,0.00
2018-10-12T01:45:46.700Z,0.00
2018-10-12T01:46:46.700Z,0.00
2018-10-12T01:47:46.704Z,0.00
2018-10-12T01:48:46.706Z,0.00
2018-10-12T01:49:46.719Z,0.00
2018-10-12T01:50:46.716Z,0.00
2018-10-12T01:51:46.717Z,0.00
2018-10-12T01:52:46.718Z,0.00
2018-10-12T01:53:46.718Z,0.00
2018-10-12T01:54:46.723Z,0.00
2018-10-12T01:55:46.727Z,0.00
2018-10-12T01:56:46.730Z,0.00
2018-10-12T01:57:46.735Z,0.00
2018-10-12T01:58:46.738Z,0.00
2018-10-12T01:59:46.737Z,0.00
2018-10-12T02:00:46.743Z,0.00
2018-10-12T02:01:46.749Z,0.00
2018-10-12T02:02:46.748Z,0.00
2018-10-12T02:03:46.765Z,0.00
2018-10-12T02:04:46.757Z,0.00
2018-10-12T02:05:46.758Z,0.00
2018-10-12T02:06:46.759Z,0.00
2018-10-12T02:07:46.763Z,0.00
2018-10-12T02:08:46.766Z,0.00
2018-10-12T02:09:46.825Z,0.00
2018-10-12T02:10:46.770Z,0.00
2018-10-12T02:11:46.774Z,0.00
2018-10-12T02:12:46.775Z,0.00
2018-10-12T02:13:46.780Z,0.00
2018-10-12T02:14:46.783Z,0.00
2018-10-12T02:15:46.782Z,0.00
2018-10-12T02:16:46.789Z,0.00
2018-10-12T02:17:46.791Z,0.00
2018-10-12T02:18:46.792Z,0.00
2018-10-12T02:19:46.795Z,0.00
2018-10-12T02:20:46.801Z,0.00
2018-10-12T02:21:46.803Z,0.00
2018-10-12T02:22:46.806Z,0.00
2018-10-12T02:23:46.809Z,0.00
2018-10-12T02:24:46.813Z,0.00
2018-10-12T02:25:46.813Z,0.00
2018-10-12T02:26:46.816Z,0.00
2018-10-12T02:27:46.821Z,0.00
2018-10-12T02:28:46.834Z,0.00
2018-10-12T02:29:46.830Z,0.00
2018-10-12T02:30:46.836Z,0.00
2018-10-12T02:31:46.833Z,0.00
2018-10-12T02:32:46.837Z,0.00
2018-10-12T02:33:46.838Z,0.00
2018-10-12T02:34:46.842Z,0.00
2018-10-12T02:35:46.845Z,0.00
2018-10-12T02:36:46.849Z,0.00
2018-10-12T02:37:46.863Z,0.00
2018-10-12T02:38:46.852Z,0.00
2018-10-12T02:39:46.853Z,0.00
2018-10-12T02:40:46.856Z,0.00
2018-10-12T02:41:46.862Z,0.00
2018-10-12T02:42:46.865Z,0.00
2018-10-12T02:43:46.868Z,0.00
2018-10-12T02:44:46.871Z,0.00
2018-10-12T02:45:46.874Z,0.00
2018-10-12T02:46:46.880Z,0.00
2018-10-12T02:47:46.880Z,0.00
2018-10-12T02:48:46.886Z,0.00
2018-10-12T02:49:46.882Z,0.00
2018-10-12T02:50:46.885Z,0.00
2018-10-12T02:51:46.891Z,0.00
2018-10-12T02:52:46.898Z,0.00
2018-10-12T02:53:46.894Z,0.00
2018-10-12T02:54:46.902Z,0.00
2018-10-12T02:55:46.910Z,0.00
2018-10-12T02:56:46.903Z,0.00
2018-10-12T02:57:46.941Z,0.00
2018-10-12T02:58:46.908Z,0.00
2018-10-12T02:59:46.911Z,0.00
2018-10-12T03:00:46.915Z,0.00
2018-10-12T03:01:46.917Z,0.00
2018-10-12T03:02:46.921Z,0.00
2018-10-12T03:03:46.922Z,0.00
2018-10-12T03:04:46.926Z,0.00
2018-10-12T03:05:46.930Z,0.00
2018-10-12T03:06:46.941Z,0.00
2018-10-12T03:07:46.934Z,0.00
2018-10-12T03:08:46.937Z,0.00
2018-10-12T03:09:46.941Z,0.00
2018-10-12T03:10:46.943Z,0.00
2018-10-12T03:11:46.945Z,0.00
2018-10-12T03:12:46.948Z,0.00
2018-10-12T03:13:46.946Z,0.00
2018-10-12T03:14:46.963Z,0.00
2018-10-12T03:15:46.962Z,0.00
2018-10-12T03:16:46.967Z,0.00
2018-10-12T03:17:46.961Z,0.00
2018-10-12T03:18:46.962Z,0.00
2018-10-12T03:19:46.972Z,0.00
2018-10-12T03:20:46.972Z,0.00
2018-10-12T03:21:46.972Z,0.00
2018-10-12T03:22:46.975Z,0.00
2018-10-12T03:23:46.979Z,0.00
2018-10-12T03:24:46.980Z,0.00
2018-10-12T03:25:46.983Z,0.00
2018-10-12T03:26:46.984Z,0.00
2018-10-12T03:27:46.989Z,0.00
2018-10-12T03:28:46.994Z,0.00
2018-10-12T03:29:46.995Z,0.00
2018-10-12T03:30:46.999Z,0.00
2018-10-12T03:31:47.002Z,0.00
2018-10-12T03:32:47.004Z,0.00
2018-10-12T03:33:47.004Z,0.00
2018-10-12T03:34:47.009Z,0.00
2018-10-12T03:35:47.014Z,0.00
2018-10-12T03:36:47.014Z,0.00
2018-10-12T03:37:47.013Z,0.00
2018-10-12T03:38:47.064Z,0.00
2018-10-12T03:39:47.025Z,0.00
2018-10-12T03:40:47.032Z,0.00
2018-10-12T03:41:47.041Z,0.00
2018-10-12T03:42:47.032Z,0.00
2018-10-12T03:43:47.034Z,0.00
2018-10-12T03:44:47.037Z,0.00
2018-10-12T03:45:47.037Z,0.00
2018-10-12T03:46:47.041Z,0.00
2018-10-12T03:47:47.047Z,0.00
2018-10-12T03:48:47.052Z,0.00
2018-10-12T03:49:47.049Z,0.00
2018-10-12T03:50:47.053Z,0.00
2018-10-12T03:51:47.128Z,0.00
2018-10-12T03:52:47.057Z,0.00
2018-10-12T03:53:47.061Z,0.00
2018-10-12T03:54:47.072Z,0.00
2018-10-12T03:55:47.064Z,0.00
2018-10-12T03:56:47.065Z,0.00
2018-10-12T03:57:47.095Z,0.00
2018-10-12T03:58:47.073Z,0.00
2018-10-12T03:59:47.075Z,0.00
2018-10-12T04:00:47.079Z,0.00
2018-10-12T04:01:47.078Z,0.00
2018-10-12T04:02:47.115Z,0.00
2018-10-12T04:03:47.087Z,0.00
2018-10-12T04:04:47.089Z,0.00
2018-10-12T04:05:47.103Z,0.00
2018-10-12T04:06:47.104Z,0.00
2018-10-12T04:07:47.102Z,0.00
2018-10-12T04:08:47.104Z,0.00
2018-10-12T04:09:47.102Z,0.00
2018-10-12T04:10:47.105Z,0.00
2018-10-12T04:11:47.105Z,0.00
2018-10-12T04:12:47.109Z,0.00
2018-10-12T04:13:47.108Z,0.00
2018-10-12T04:14:47.113Z,0.00
2018-10-12T04:15:47.119Z,0.00
2018-10-12T04:16:47.120Z,0.00
2018-10-12T04:17:47.121Z,0.00
2018-10-12T04:18:47.123Z,0.00
2018-10-12T04:19:47.130Z,0.00
2018-10-12T04:20:47.125Z,0.00
2018-10-12T04:21:47.129Z,0.00
2018-10-12T04:22:47.131Z,0.00
2018-10-12T04:23:47.143Z,0.00
2018-10-12T04:24:47.135Z,0.00
2018-10-12T04:25:47.137Z,0.00
2018-10-12T04:26:47.141Z,0.00
2018-10-12T04:27:47.141Z,0.00
2018-10-12T04:28:47.154Z,0.00
2018-10-12T04:29:47.147Z,0.00
2018-10-12T04:30:47.153Z,0.00
2018-10-12T04:31:47.151Z,0.00
2018-10-12T04:32:47.153Z,0.00
2018-10-12T04:33:47.160Z,0.00
2018-10-12T04:34:47.159Z,0.00
2018-10-12T04:35:47.161Z,0.00
2018-10-12T04:36:47.163Z,0.00
2018-10-12T04:37:47.163Z,0.00
2018-10-12T04:38:47.169Z,0.00
2018-10-12T04:39:47.172Z,0.00
2018-10-12T04:40:47.172Z,0.00
2018-10-12T04:41:47.172Z,0.00
2018-10-12T04:42:47.179Z,0.00
2018-10-12T04:43:47.175Z,0.00
2018-10-12T04:44:47.179Z,0.00
2018-10-12T04:45:47.181Z,0.00
2018-10-12T04:46:47.182Z,0.00
2018-10-12T04:47:47.185Z,0.00
2018-10-12T04:48:47.204Z,0.00
2018-10-12T04:49:47.192Z,0.00
2018-10-12T04:50:47.191Z,0.00
2018-10-12T04:51:47.199Z,0.00
2018-10-12T04:52:47.194Z,0.00
2018-10-12T04:53:47.313Z,0.00
2018-10-12T04:54:47.198Z,0.00
2018-10-12T04:55:47.201Z,0.00
2018-10-12T04:56:47.208Z,0.00
2018-10-12T04:57:47.204Z,0.00
2018-10-12T04:58:47.207Z,0.00
2018-10-12T04:59:47.211Z,0.00
2018-10-12T05:00:47.271Z,0.00
2018-10-12T05:01:47.224Z,0.00
2018-10-12T05:02:47.215Z,0.00
2018-10-12T05:03:47.221Z,0.00
2018-10-12T05:04:47.219Z,0.00
2018-10-12T05:05:47.237Z,0.00
2018-10-12T05:06:47.222Z,0.00
2018-10-12T05:07:47.253Z,0.00
2018-10-12T05:08:47.226Z,0.00
2018-10-12T05:09:47.236Z,0.00
2018-10-12T05:10:47.236Z,0.00
2018-10-12T05:11:47.235Z,0.00
2018-10-12T05:12:47.237Z,0.00
2018-10-12T05:13:47.238Z,0.00
2018-10-12T05:14:47.251Z,0.00
2018-10-12T05:15:47.242Z,0.00
2018-10-12T05:16:47.244Z,0.00
2018-10-12T05:17:47.248Z,0.00
2018-10-12T05:18:47.250Z,0.00
2018-10-12T05:19:47.251Z,0.00
2018-10-12T05:20:47.253Z,0.00
2018-10-12T05:21:47.256Z,0.00
2018-10-12T05:22:47.259Z,0.00
2018-10-12T05:23:47.257Z,0.00
2018-10-12T05:24:47.262Z,0.00
2018-10-12T05:25:47.262Z,0.00
2018-10-12T05:26:47.259Z,0.00
2018-10-12T05:27:47.264Z,0.00
2018-10-12T05:28:47.270Z,0.00
2018-10-12T05:29:47.269Z,0.00
2018-10-12T05:30:47.273Z,0.00
2018-10-12T05:31:47.273Z,0.00
2018-10-12T05:32:47.277Z,0.00
2018-10-12T05:33:47.305Z,0.00
2018-10-12T05:34:47.278Z,0.00
2018-10-12T05:35:47.283Z,0.00
2018-10-12T05:36:47.282Z,0.00
2018-10-12T05:37:47.284Z,0.00
2018-10-12T05:38:47.285Z,5.63
2018-10-12T05:39:47.288Z,5.63
2018-10-12T05:40:47.293Z,5.63
2018-10-12T05:41:47.291Z,5.63
2018-10-12T05:42:47.336Z,5.63
2018-10-12T05:43:47.373Z,5.63
2018-10-12T05:44:47.297Z,5.63
2018-10-12T05:45:47.315Z,5.63
2018-10-12T05:46:47.301Z,5.63
2018-10-12T05:47:47.300Z,5.63
2018-10-12T05:48:47.366Z,5.63
2018-10-12T05:49:47.307Z,5.63
2018-10-12T05:50:47.308Z,5.63
2018-10-12T05:51:47.311Z,11.25
2018-10-12T05:52:47.311Z,11.25
2018-10-12T05:53:47.312Z,11.25
2018-10-12T05:54:47.317Z,11.25
2018-10-12T05:55:47.376Z,11.25
2018-10-12T05:56:47.317Z,11.25
2018-10-12T05:57:47.320Z,16.88
2018-10-12T05:58:47.319Z,16.88
2018-10-12T05:59:47.323Z,16.88
2018-10-12T06:00:47.325Z,16.88
2018-10-12T06:01:47.330Z,16.88
2018-10-12T06:02:47.327Z,16.88
2018-10-12T06:03:47.333Z,16.88
2018-10-12T06:04:47.340Z,22.50
2018-10-12T06:05:47.333Z,22.50
2018-10-12T06:06:47.335Z,22.50
2018-10-12T06:07:47.341Z,28.13
2018-10-12T06:08:47.340Z,28.13
2018-10-12T06:09:47.445Z,28.13
2018-10-12T06:10:47.338Z,28.13
2018-10-12T06:11:47.344Z,33.75
2018-10-12T06:12:47.385Z,33.75
2018-10-12T06:13:47.362Z,33.75
2018-10-12T06:14:47.347Z,33.75
2018-10-12T06:15:47.422Z,39.38
2018-10-12T06:16:47.357Z,84.38
2018-10-12T06:17:47.354Z,129.38
2018-10-12T06:18:47.356Z,135.00
2018-10-12T06:19:47.358Z,135.00
2018-10-12T06:20:47.362Z,140.63
2018-10-12T06:21:47.363Z,146.25
2018-10-12T06:22:47.364Z,146.25
2018-10-12T06:23:47.367Z,151.88
2018-10-12T06:24:47.367Z,157.50
2018-10-12T06:25:47.373Z,168.75
2018-10-12T06:26:47.434Z,174.38
2018-10-12T06:27:47.383Z,180.00
2018-10-12T06:28:47.383Z,185.63
2018-10-12T06:29:47.383Z,191.25
2018-10-12T06:30:47.391Z,196.88
2018-10-12T06:31:47.393Z,202.50
2018-10-12T06:32:47.457Z,202.50
2018-10-12T06:33:47.400Z,208.13
2018-10-12T06:34:47.411Z,208.13
2018-10-12T06:35:47.410Z,213.75
2018-10-12T06:36:47.415Z,213.75
2018-10-12T06:37:47.444Z,219.38
2018-10-12T06:38:47.426Z,219.38
2018-10-12T06:39:47.430Z,230.63
2018-10-12T06:40:47.437Z,236.25
2018-10-12T06:41:47.589Z,241.88
2018-10-12T06:42:47.450Z,253.13
2018-10-12T06:43:47.450Z,264.38
2018-10-12T06:44:47.456Z,286.88
2018-10-12T06:45:47.503Z,309.38
2018-10-12T06:46:47.594Z,354.38
2018-10-12T06:47:47.473Z,416.25
2018-10-12T06:48:47.478Z,534.38
2018-10-12T06:49:47.484Z,725.63
2018-10-12T06:50:47.489Z,725.63
2018-10-12T06:51:47.496Z,675.00
2018-10-12T06:52:47.501Z,663.75
2018-10-12T06:53:47.555Z,669.38
2018-10-12T06:54:47.517Z,675.00
2018-10-12T06:55:47.522Z,669.38
2018-10-12T06:56:47.529Z,686.25
2018-10-12T06:57:47.533Z,742.50
2018-10-12T06:58:47.542Z,765.00
2018-10-12T06:59:47.570Z,748.13
2018-10-12T07:00:47.558Z,776.25
2018-10-12T07:01:47.563Z,866.25
2018-10-12T07:02:47.569Z,950.63
2018-10-12T07:03:47.577Z,990.00
2018-10-12T07:04:47.590Z,1085.63
2018-10-12T07:05:47.668Z,1085.63
2018-10-12T07:06:47.604Z,1125.00
2018-10-12T07:07:47.609Z,1164.38
2018-10-12T07:08:47.612Z,1350.00
2018-10-12T07:09:47.624Z,1434.38
2018-10-12T07:10:47.633Z,1361.25
2018-10-12T07:11:47.645Z,1378.13
2018-10-12T07:12:47.649Z,1456.88
2018-10-12T07:13:47.688Z,1546.88
2018-10-12T07:14:47.666Z,1558.13
2018-10-12T07:15:47.671Z,1558.13
2018-10-12T07:16:47.678Z,1530.00
2018-10-12T07:17:47.685Z,1456.88
2018-10-12T07:18:47.698Z,1501.88
2018-10-12T07:19:47.704Z,1597.50
2018-10-12T07:20:47.716Z,1552.50
2018-10-12T07:21:47.723Z,1507.50
2018-10-12T07:22:47.744Z,1473.75
2018-10-12T07:23:47.740Z,1310.63
2018-10-12T07:24:47.752Z,1001.25
2018-10-12T07:25:47.765Z,798.75
2018-10-12T07:26:47.765Z,731.25
2018-10-12T07:27:47.773Z,652.50
2018-10-12T07:28:47.803Z,292.50
2018-10-12T07:29:47.787Z,275.63
2018-10-12T07:30:47.802Z,140.63
2018-10-12T07:31:47.829Z,135.00
2018-10-12T07:32:47.815Z,106.88
2018-10-12T07:33:47.820Z,106.88
2018-10-12T07:34:47.835Z,101.25
2018-10-12T07:35:47.833Z,112.50
2018-10-12T07:36:47.848Z,208.13
2018-10-12T07:37:47.913Z,337.50
2018-10-12T07:38:47.856Z,337.50
2018-10-12T07:39:47.910Z,180.00
2018-10-12T07:40:49.276Z,241.88
2018-10-12T07:41:56.045Z,343.13
2018-10-12T07:43:40.830Z,168.75
2018-10-12T07:44:40.804Z,258.75
2018-10-12T07:45:40.827Z,140.63
2018-10-12T07:46:40.802Z,112.50
2018-10-12T07:47:40.796Z,112.50
2018-10-12T07:48:47.934Z,118.13
2018-10-12T07:50:33.765Z,140.63
2018-10-12T07:51:33.678Z,292.50
2018-10-12T07:52:33.686Z,331.88
2018-10-12T07:53:33.691Z,174.38
2018-10-12T07:54:33.697Z,163.13
2018-10-12T07:55:33.711Z,135.00
2018-10-12T07:56:33.708Z,135.00
2018-10-12T07:57:33.806Z,123.75
2018-10-12T07:58:33.740Z,118.13
2018-10-12T07:59:33.821Z,123.75
2018-10-12T08:00:33.945Z,123.75
2018-10-12T08:01:33.734Z,151.88
2018-10-12T08:02:33.738Z,213.75
2018-10-12T08:03:33.746Z,151.88
2018-10-12T08:04:33.750Z,135.00
2018-10-12T08:05:33.886Z,140.63
2018-10-12T08:06:33.775Z,168.75
2018-10-12T08:07:33.766Z,382.50
2018-10-12T08:08:33.777Z,382.50
2018-10-12T08:09:33.838Z,185.63
2018-10-12T08:10:33.838Z,208.13
2018-10-12T08:11:33.788Z,315.00
2018-10-12T08:12:33.794Z,146.25
2018-10-12T08:13:33.857Z,140.63
2018-10-12T08:14:33.804Z,157.50
2018-10-12T08:15:33.923Z,270.00
2018-10-12T08:16:33.822Z,793.13
2018-10-12T08:17:33.823Z,1530.00
2018-10-12T08:18:33.826Z,1417.50
2018-10-12T08:19:33.831Z,1406.25
2018-10-12T08:20:34.001Z,1721.25
2018-10-12T08:21:33.840Z,2047.50
2018-10-12T08:22:33.848Z,2311.88
2018-10-12T08:23:33.853Z,2086.88
2018-10-12T08:24:33.859Z,1845.00
2018-10-12T08:25:34.005Z,1648.13
2018-10-12T08:26:33.872Z,1524.38
2018-10-12T08:27:33.873Z,1462.50
2018-10-12T08:28:33.885Z,1417.50
2018-10-12T08:29:33.889Z,1383.75
2018-10-12T08:30:33.961Z,1366.88
2018-10-12T08:31:33.964Z,1344.38
2018-10-12T08:32:33.916Z,1350.00
2018-10-12T08:33:33.924Z,1338.75
2018-10-12T08:34:33.932Z,1338.75
2018-10-12T08:35:34.081Z,1350.00
2018-10-12T08:36:34.109Z,1355.63
2018-10-12T08:37:33.962Z,1372.50
2018-10-12T08:38:33.972Z,1395.00
2018-10-12T08:39:33.983Z,1395.00
2018-10-12T08:40:34.050Z,1400.63
2018-10-12T08:41:34.006Z,1411.88
2018-10-12T08:42:34.017Z,1411.88
2018-10-12T08:43:34.029Z,1411.88
2018-10-12T08:44:34.041Z,1406.25
2018-10-12T08:45:34.185Z,1423.13
2018-10-12T08:46:34.063Z,1423.13
2018-10-12T08:47:34.077Z,1428.75
2018-10-12T08:48:34.092Z,1440.00
2018-10-12T08:49:34.104Z,1445.63
2018-10-12T08:50:34.191Z,1456.88
2018-10-12T08:51:34.132Z,1456.88
2018-10-12T08:52:34.145Z,1462.50
2018-10-12T08:53:34.167Z,1456.88
2018-10-12T08:54:34.174Z,1468.13
2018-10-12T08:55:34.480Z,1473.75
2018-10-12T08:56:34.199Z,1468.13
2018-10-12T08:57:34.211Z,1462.50
2018-10-12T08:58:34.242Z,1451.25
2018-10-12T08:59:34.245Z,1451.25
2018-10-12T09:00:34.262Z,1451.25
2018-10-12T09:01:34.272Z,1440.00
2018-10-12T09:02:34.295Z,1434.38
2018-10-12T09:03:34.304Z,1428.75
2018-10-12T09:04:34.317Z,1423.13
2018-10-12T09:05:34.333Z,1411.88
2018-10-12T09:06:34.351Z,1406.25
2018-10-12T09:07:34.364Z,1395.00
2018-10-12T09:08:34.383Z,1378.13
2018-10-12T09:09:34.391Z,1361.25
2018-10-12T09:10:34.413Z,1338.75
2018-10-12T09:11:34.427Z,1316.25
2018-10-12T09:12:34.443Z,1293.75
2018-10-12T09:13:34.459Z,1271.25
2018-10-12T09:14:34.475Z,1248.75
2018-10-12T09:15:34.489Z,1226.25
2018-10-12T09:16:34.504Z,1203.75
2018-10-12T09:17:34.520Z,1186.88
2018-10-12T09:18:34.537Z,1164.38
2018-10-12T09:19:34.559Z,1147.50
2018-10-12T09:20:34.801Z,1125.00
2018-10-12T09:21:34.591Z,1108.13
2018-10-12T09:22:34.603Z,1096.88
2018-10-12T09:23:34.622Z,1096.88
2018-10-12T09:24:34.643Z,1085.63
2018-10-12T09:25:34.657Z,1085.63
2018-10-12T09:26:34.676Z,1096.88
2018-10-12T09:27:34.689Z,1198.13
2018-10-12T09:28:34.704Z,2075.63
2018-10-12T09:29:34.728Z,3453.75
2018-10-12T09:30:34.740Z,3695.63
2018-10-12T09:31:34.757Z,3633.75
2018-10-12T09:32:34.773Z,3436.88
2018-10-12T09:33:34.794Z,3403.13
2018-10-12T09:34:34.807Z,3301.88
2018-10-12T09:35:34.827Z,3375.00
2018-10-12T09:36:34.964Z,3431.25
2018-10-12T09:37:34.860Z,3268.13
2018-10-12T09:38:34.880Z,3223.13
2018-10-12T09:39:34.898Z,3211.88
2018-10-12T09:40:34.921Z,3110.63
2018-10-12T09:41:34.933Z,3251.25
2018-10-12T09:42:34.953Z,3301.88
2018-10-12T09:43:34.976Z,3211.88
2018-10-12T09:44:34.991Z,3144.38
2018-10-12T09:45:35.011Z,3211.88
2018-10-12T09:46:35.027Z,3082.50
2018-10-12T09:47:35.049Z,2986.88
2018-10-12T09:48:35.075Z,3065.63
2018-10-12T09:49:35.088Z,3256.88
2018-10-12T09:50:35.108Z,3363.75
2018-10-12T09:51:35.124Z,3307.50
2018-10-12T09:52:35.145Z,3195.00
2018-10-12T09:53:35.162Z,3380.63
2018-10-12T09:54:35.186Z,3459.38
2018-10-12T09:55:35.200Z,3313.13
2018-10-12T09:56:35.222Z,3296.25
2018-10-12T09:57:35.241Z,3217.50
2018-10-12T09:58:35.264Z,3251.25
2018-10-12T09:59:35.279Z,3324.38
2018-10-12T10:00:35.297Z,3391.88
2018-10-12T10:01:35.348Z,2806.88
2018-10-12T10:02:35.337Z,1181.25
2018-10-12T10:03:35.357Z,292.50
2018-10-12T10:04:35.373Z,236.25
2018-10-12T10:05:35.388Z,213.75
2018-10-12T10:06:35.405Z,202.50
2018-10-12T10:07:35.488Z,196.88
2018-10-12T10:08:36.048Z,196.88
2018-10-12T10:09:35.461Z,191.25
2018-10-12T10:10:35.472Z,185.63
2018-10-12T10:11:35.488Z,180.00
2018-10-12T10:12:35.499Z,180.00
2018-10-12T10:13:35.537Z,180.00
2018-10-12T10:14:35.527Z,180.00
2018-10-12T10:15:35.637Z,180.00
2018-10-12T10:16:35.552Z,180.00
2018-10-12T10:17:35.562Z,180.00
2018-10-12T10:18:35.576Z,174.38
2018-10-12T10:19:35.589Z,174.38
2018-10-12T10:20:35.600Z,174.38
2018-10-12T10:21:35.610Z,174.38
2018-10-12T10:22:35.655Z,174.38
2018-10-12T10:23:35.641Z,174.38
2018-10-12T10:24:35.641Z,174.38
2018-10-12T10:25:35.656Z,174.38
2018-10-12T10:26:35.660Z,174.38
2018-10-12T10:27:35.671Z,174.38
2018-10-12T10:28:35.686Z,174.38
2018-10-12T10:29:35.688Z,174.38
2018-10-12T10:30:35.693Z,168.75
2018-10-12T10:31:35.707Z,168.75
2018-10-12T10:32:35.718Z,168.75
2018-10-12T10:33:35.724Z,168.75
2018-10-12T10:34:35.732Z,168.75
2018-10-12T10:35:35.749Z,168.75
2018-10-12T10:36:35.753Z,168.75
2018-10-12T10:37:35.760Z,168.75
2018-10-12T10:38:35.769Z,168.75
2018-10-12T10:39:35.774Z,168.75
2018-10-12T10:40:35.783Z,174.38
2018-10-12T10:41:35.790Z,163.13
2018-10-12T10:42:35.800Z,163.13
2018-10-12T10:43:35.807Z,163.13
2018-10-12T10:44:35.815Z,163.13
2018-10-12T10:45:35.822Z,163.13
2018-10-12T10:46:35.829Z,163.13
2018-10-12T10:47:35.844Z,157.50
2018-10-12T10:48:35.845Z,163.13
2018-10-12T10:49:35.853Z,157.50
2018-10-12T10:50:35.860Z,157.50
2018-10-12T10:51:35.868Z,157.50
2018-10-12T10:52:35.876Z,157.50
2018-10-12T10:53:35.934Z,157.50
2018-10-12T10:54:35.890Z,157.50
2018-10-12T10:55:35.899Z,157.50
2018-10-12T10:56:35.904Z,157.50
2018-10-12T10:57:35.913Z,157.50
2018-10-12T10:58:35.925Z,157.50
2018-10-12T10:59:35.931Z,157.50
2018-10-12T11:00:35.937Z,157.50
2018-10-12T11:01:35.942Z,151.88
2018-10-12T11:02:35.949Z,151.88
2018-10-12T11:03:35.957Z,151.88
2018-10-12T11:04:35.966Z,151.88
2018-10-12T11:05:35.970Z,151.88
2018-10-12T11:06:35.979Z,151.88
2018-10-12T11:07:35.985Z,151.88
2018-10-12T11:08:35.994Z,151.88
2018-10-12T11:09:36.001Z,151.88
2018-10-12T11:10:36.007Z,151.88
2018-10-12T11:11:36.037Z,151.88
2018-10-12T11:12:36.103Z,151.88
2018-10-12T11:13:36.046Z,151.88
2018-10-12T11:14:36.036Z,151.88
2018-10-12T11:15:36.043Z,151.88
2018-10-12T11:16:36.052Z,151.88
2018-10-12T11:17:36.063Z,146.25
2018-10-12T11:18:36.085Z,146.25
2018-10-12T11:19:36.127Z,146.25
2018-10-12T11:20:36.099Z,146.25
2018-10-12T11:21:36.085Z,140.63
2018-10-12T11:22:36.093Z,146.25
2018-10-12T11:23:36.100Z,140.63
2018-10-12T11:24:36.190Z,140.63
2018-10-12T11:25:36.131Z,140.63
2018-10-12T11:26:36.134Z,140.63
2018-10-12T11:27:36.127Z,140.63
2018-10-12T11:28:36.134Z,140.63
2018-10-12T11:29:36.141Z,140.63
2018-10-12T11:30:36.150Z,140.63
2018-10-12T11:31:36.212Z,135.00
2018-10-12T11:32:36.174Z,135.00
2018-10-12T11:33:36.169Z,140.63
2018-10-12T11:34:36.175Z,140.63
2018-10-12T11:35:36.183Z,135.00
2018-10-12T11:36:36.192Z,135.00
2018-10-12T11:37:36.195Z,135.00
2018-10-12T11:38:36.202Z,135.00
2018-10-12T11:39:36.212Z,135.00
2018-10-12T11:40:36.216Z,135.00
2018-10-12T11:41:36.222Z,135.00
2018-10-12T11:42:36.230Z,135.00
2018-10-12T11:43:36.239Z,129.38
2018-10-12T11:44:36.244Z,129.38
2018-10-12T11:45:36.250Z,129.38
2018-10-12T11:46:36.258Z,129.38
2018-10-12T11:47:36.288Z,129.38
2018-10-12T11:48:36.272Z,129.38
2018-10-12T11:49:36.278Z,129.38
2018-10-12T11:50:36.310Z,129.38
2018-10-12T11:51:36.310Z,135.00
2018-10-12T11:52:36.323Z,135.00
2018-10-12T11:53:36.300Z,129.38
2018-10-12T11:54:36.311Z,129.38
2018-10-12T11:55:36.318Z,129.38
2018-10-12T11:56:36.326Z,129.38
2018-10-12T11:57:36.334Z,129.38
2018-10-12T11:58:36.338Z,129.38
2018-10-12T11:59:36.345Z,129.38
2018-10-12T12:00:36.352Z,129.38
2018-10-12T12:01:36.361Z,129.38
2018-10-12T12:02:36.369Z,123.75
2018-10-12T12:03:36.394Z,129.38
2018-10-12T12:04:36.416Z,129.38
2018-10-12T12:05:36.395Z,129.38
2018-10-12T12:06:36.393Z,129.38
2018-10-12T12:07:36.425Z,129.38
2018-10-12T12:08:36.404Z,129.38
2018-10-12T12:09:36.414Z,129.38
2018-10-12T12:10:36.424Z,129.38
2018-10-12T12:11:36.425Z,123.75
2018-10-12T12:12:36.435Z,123.75
2018-10-12T12:13:36.517Z,123.75
2018-10-12T12:14:36.445Z,118.13
2018-10-12T12:15:36.455Z,118.13
2018-10-12T12:16:36.460Z,118.13
2018-10-12T12:17:36.498Z,118.13
2018-10-12T12:18:36.474Z,118.13
2018-10-12T12:19:36.488Z,112.50
2018-10-12T12:20:36.486Z,112.50
2018-10-12T12:21:36.492Z,112.50
2018-10-12T12:22:36.500Z,112.50
2018-10-12T12:23:36.505Z,112.50
2018-10-12T12:24:36.513Z,112.50
2018-10-12T12:25:36.520Z,106.88
2018-10-12T12:26:36.526Z,106.88
2018-10-12T12:27:36.532Z,106.88
2018-10-12T12:28:36.540Z,106.88
2018-10-12T12:29:36.547Z,106.88
2018-10-12T12:30:36.560Z,106.88
2018-10-12T12:31:36.560Z,106.88
2018-10-12T12:32:36.569Z,106.88
2018-10-12T12:33:36.569Z,106.88
2018-10-12T12:34:36.704Z,106.88
2018-10-12T12:35:36.969Z,106.88
2018-10-12T12:36:36.600Z,106.88
2018-10-12T12:37:36.599Z,106.88
2018-10-12T12:38:36.603Z,106.88
2018-10-12T12:39:36.639Z,112.50
2018-10-12T12:40:36.616Z,112.50
2018-10-12T12:41:36.679Z,112.50
2018-10-12T12:42:36.636Z,112.50
2018-10-12T12:43:36.637Z,106.88
2018-10-12T12:44:36.646Z,106.88
2018-10-12T12:45:36.647Z,101.25
2018-10-12T12:46:36.660Z,101.25
2018-10-12T12:47:36.776Z,101.25
2018-10-12T12:48:36.968Z,101.25
2018-10-12T12:49:36.676Z,101.25